Spofford, Texas
Current Conditions -  °F | °C
As of 2:58 AM on Wednesday 22 Oct 2014 (Local Time) from KDLF Reporting Station
Overcast Overcast  
Wind Chill: 70°   Ceiling: 5000
Heat Index: 70°   Visibility: 10mi
Dew Point: 66°   Wind: 2mph
Humidity: 89%   Direction: 160°SSE
Pressure: 30.01"   Gusts: NA
Location:  28.9584°N, 100.392°W
Report Text: KDLF 220758Z AUTO 16002KT 10SM OVC050 21/19 A3001 RMK AO2 SLP151 T02090190 $
Loading
Personal Weather Stations






























Interactive Weather Map
Tropical Storm Tracking
New forecast layout! Learn more

10-Day Weather Forecast

Advertisements
Track Severe Weather on mobile